Schaffer, Michigan
Current Conditions -  °F | °C
As of 10:35 PM on Monday 26 Jan 2015 (Local Time) from KESC Reporting Station
Overcast Overcast  
Wind Chill: 11°   Ceiling: 4200
Heat Index: 21°   Visibility: 10mi
Dew Point: 18°   Wind: 9mph
Humidity: 86%   Direction: 120°ESE
Pressure: 29.98"   Gusts: NA
Location:  45.682°N, 87.2748°W
Report Text: KESC 270335Z AUTO 12008KT 10SM FEW013 SCT024 OVC042 M06/M08 A2998 RMK AO1
Loading
Personal Weather Stations






























Interactive Weather Map New forecast layout! Learn more

10-Day Weather Forecast

Advertisements
Track Severe Weather on mobile